TimeEST,TemperatureF,Dew PointF,Humidity,Sea Level PressureIn,VisibilityMPH,Wind Direction,Wind SpeedMPH,Gust SpeedMPH,PrecipitationIn,Events,Conditions,WindDirDegrees,DateUTC
12:53 AM,64.0,57.9,80,30.24,10.0,NE,12.7,18.4,N/A,,Mostly Cloudy,40,2012-12-31 05:53:00
1:53 AM,64.0,57.9,80,30.23,10.0,NE,15.0,-,N/A,,Scattered Clouds,40,2012-12-31 06:53:00
2:53 AM,64.9,59.0,81,30.22,10.0,NE,9.2,-,N/A,,Mostly Cloudy,40,2012-12-31 07:53:00
3:53 AM,64.9,59.0,81,30.22,10.0,NE,9.2,-,N/A,,Mostly Cloudy,40,2012-12-31 08:53:00
4:53 AM,64.9,59.0,81,30.21,10.0,NE,9.2,-,N/A,,Mostly Cloudy,50,2012-12-31 09:53:00
5:53 AM,64.0,59.0,84,30.21,10.0,NE,8.1,-,N/A,,Partly Cloudy,50,2012-12-31 10:53:00
6:53 AM,64.9,59.0,81,30.22,10.0,NE,5.8,-,N/A,,Scattered Clouds,50,2012-12-31 11:53:00
7:53 AM,66.0,60.1,81,30.23,10.0,NE,4.6,-,N/A,,Scattered Clouds,50,2012-12-31 12:53:00
8:53 AM,71.1,60.1,68,30.24,10.0,East,10.4,-,N/A,,Mostly Cloudy,90,2012-12-31 13:53:00
9:53 AM,72.0,59.0,64,30.25,10.0,East,10.4,-,N/A,,Overcast,80,2012-12-31 14:53:00
10:53 AM,73.9,59.0,59,30.25,10.0,East,17.3,21.9,N/A,,Mostly Cloudy,100,2012-12-31 15:53:00
11:53 AM,73.9,60.1,62,30.24,10.0,East,15.0,-,N/A,,Overcast,90,2012-12-31 16:53:00
12:53 PM,73.9,60.1,62,30.22,10.0,East,12.7,-,N/A,,Mostly Cloudy,90,2012-12-31 17:53:00
1:53 PM,75.0,59.0,57,30.19,10.0,East,17.3,-,N/A,,Scattered Clouds,90,2012-12-31 18:53:00
2:53 PM,75.9,60.1,58,30.17,10.0,East,18.4,-,N/A,,Clear,90,2012-12-31 19:53:00
3:53 PM,75.0,60.1,60,30.16,10.0,East,18.4,-,N/A,,Clear,80,2012-12-31 20:53:00
4:53 PM,73.0,60.1,64,30.17,10.0,East,16.1,-,N/A,,Clear,80,2012-12-31 21:53:00
5:53 PM,71.1,61.0,70,30.16,10.0,East,12.7,-,N/A,,Scattered Clouds,80,2012-12-31 22:53:00
6:53 PM,71.1,59.0,66,30.16,10.0,East,15.0,-,N/A,,Mostly Cloudy,90,2012-12-31 23:53:00
7:53 PM,72.0,60.1,66,30.17,10.0,East,12.7,-,N/A,,Mostly Cloudy,100,2013-01-01 00:53:00
8:53 PM,73.0,60.1,64,30.17,10.0,East,12.7,-,N/A,,Mostly Cloudy,100,2013-01-01 01:53:00
9:53 PM,73.0,61.0,66,30.17,10.0,ESE,12.7,-,N/A,,Mostly Cloudy,110,2013-01-01 02:53:00
10:53 PM,73.0,60.1,64,30.17,10.0,East,15.0,-,N/A,,Overcast,100,2013-01-01 03:53:00
11:53 PM,73.0,59.0,61,30.17,10.0,ESE,11.5,-,N/A,,Overcast,120,2013-01-01 04:53:00